createdAt,value
2018-11-01T00:00:13.585Z,10.71
2018-11-01T00:01:13.292Z,10.8
2018-11-01T00:02:13.548Z,10.81
2018-11-01T00:03:13.536Z,10.78
2018-11-01T00:04:13.510Z,10.81
2018-11-01T00:05:13.501Z,10.89
2018-11-01T00:06:13.491Z,10.91
2018-11-01T00:07:13.467Z,10.92
2018-11-01T00:08:13.463Z,10.95
2018-11-01T00:09:12.899Z,10.94
2018-11-01T00:10:13.162Z,10.94
2018-11-01T00:11:13.132Z,11.02
2018-11-01T00:12:13.376Z,11.01
2018-11-01T00:13:13.304Z,11.07
2018-11-01T00:14:13.345Z,11.09
2018-11-01T00:15:13.065Z,11.07
2018-11-01T00:16:13.316Z,11.07
2018-11-01T00:17:12.766Z,11.13
2018-11-01T00:18:12.753Z,11.03
2018-11-01T00:19:13.000Z,11.02
2018-11-01T00:20:12.984Z,11.06
2018-11-01T00:21:13.239Z,11.11
2018-11-01T00:22:12.686Z,11.07
2018-11-01T00:23:13.206Z,11.06
2018-11-01T00:24:13.182Z,11.02
2018-11-01T00:25:13.157Z,11.03
2018-11-01T00:26:13.144Z,11.03
2018-11-01T00:27:12.872Z,10.99
2018-11-01T00:28:12.849Z,11.07
2018-11-01T00:29:12.568Z,11.06
2018-11-01T00:30:13.088Z,11.01
2018-11-01T00:31:12.545Z,10.98
2018-11-01T00:32:12.787Z,10.96
2018-11-01T00:33:13.025Z,11.06
2018-11-01T00:34:12.753Z,11.07
2018-11-01T00:35:12.745Z,10.96
2018-11-01T00:36:12.979Z,11.03
2018-11-01T00:37:12.747Z,11.02
2018-11-01T00:38:12.419Z,11.11
2018-11-01T00:39:12.948Z,11.11
2018-11-01T00:40:12.916Z,11.02
2018-11-01T00:41:12.635Z,11.02
2018-11-01T00:42:12.618Z,11.02
2018-11-01T00:43:12.873Z,10.99
2018-11-01T00:44:12.853Z,10.94
2018-11-01T00:45:12.847Z,10.89
2018-11-01T00:46:12.557Z,10.98
2018-11-01T00:47:12.812Z,10.88
2018-11-01T00:48:12.529Z,10.88
2018-11-01T00:49:12.242Z,10.94
2018-11-01T00:50:12.757Z,10.88
2018-11-01T00:51:12.470Z,10.81
2018-11-01T00:52:12.462Z,10.84
2018-11-01T00:53:12.446Z,10.86
2018-11-01T00:54:12.691Z,10.76
2018-11-01T00:55:12.139Z,10.81
2018-11-01T00:56:12.127Z,10.78
2018-11-01T00:57:12.373Z,10.8
2018-11-01T00:58:12.629Z,10.74
2018-11-01T00:59:12.347Z,10.73
2018-11-01T01:00:12.594Z,10.71
2018-11-01T01:01:12.043Z,10.71
2018-11-01T01:02:12.317Z,10.66
2018-11-01T01:03:12.277Z,10.76
2018-11-01T01:04:12.521Z,10.7
2018-11-01T01:05:12.244Z,10.76
2018-11-01T01:06:12.487Z,10.71
2018-11-01T01:07:12.217Z,10.7
2018-11-01T01:08:12.184Z,10.63
2018-11-01T01:09:12.545Z,10.52
2018-11-01T01:10:11.900Z,10.53
2018-11-01T01:11:12.144Z,10.47
2018-11-01T01:12:12.391Z,10.53
2018-11-01T01:13:12.383Z,10.47
2018-11-01T01:14:12.358Z,10.55
2018-11-01T01:15:12.345Z,10.56
2018-11-01T01:16:12.322Z,10.52
2018-11-01T01:17:12.037Z,10.56
2018-11-01T01:18:12.293Z,10.55
2018-11-01T01:19:12.259Z,10.56
2018-11-01T01:20:12.254Z,10.53
2018-11-01T01:21:11.974Z,10.55
2018-11-01T01:22:12.223Z,10.56
2018-11-01T01:23:11.876Z,10.53
2018-11-01T01:24:11.925Z,10.51
2018-11-01T01:25:11.900Z,10.52
2018-11-01T01:26:12.153Z,10.55
2018-11-01T01:27:11.874Z,10.56
2018-11-01T01:28:12.122Z,10.63
2018-11-01T01:29:12.123Z,10.71
2018-11-01T01:30:11.824Z,10.55
2018-11-01T01:31:11.809Z,10.73
2018-11-01T01:32:11.791Z,10.65
2018-11-01T01:33:11.778Z,10.6
2018-11-01T01:34:12.020Z,10.71
2018-11-01T01:35:11.997Z,10.63
2018-11-01T01:36:11.724Z,10.63
2018-11-01T01:37:11.966Z,10.58
2018-11-01T01:38:11.958Z,10.59
2018-11-01T01:39:11.936Z,10.73
2018-11-01T01:40:11.925Z,10.59
2018-11-01T01:41:11.638Z,10.52
2018-11-01T01:42:11.614Z,10.56
2018-11-01T01:43:11.609Z,10.52
2018-11-01T01:44:11.848Z,10.53
2018-11-01T01:45:11.584Z,10.53
2018-11-01T01:46:11.820Z,10.46
2018-11-01T01:47:11.821Z,10.55
2018-11-01T01:48:11.531Z,10.51
2018-11-01T01:49:11.773Z,10.55
2018-11-01T01:50:11.485Z,10.51
2018-11-01T01:51:11.751Z,10.55
2018-11-01T01:52:11.188Z,10.58
2018-11-01T01:53:11.441Z,10.53
2018-11-01T01:54:11.422Z,10.58
2018-11-01T01:55:11.671Z,10.63
2018-11-01T01:56:11.396Z,10.63
2018-11-01T01:57:11.637Z,10.68
2018-11-01T01:58:11.629Z,10.65
2018-11-01T01:59:11.337Z,10.68
2018-11-01T02:00:11.325Z,10.66
2018-11-01T02:01:11.576Z,10.66
2018-11-01T02:02:11.287Z,10.68
2018-11-01T02:03:11.275Z,10.63
2018-11-01T02:04:11.514Z,10.6
2018-11-01T02:05:11.239Z,10.58
2018-11-01T02:06:11.484Z,10.58
2018-11-01T02:07:11.469Z,10.53
2018-11-01T02:08:11.452Z,10.53
2018-11-01T02:09:11.178Z,10.53
2018-11-01T02:10:10.890Z,10.52
2018-11-01T02:11:11.412Z,10.56
2018-11-01T02:12:11.122Z,10.52
2018-11-01T02:13:11.306Z,10.59
2018-11-01T02:14:11.089Z,10.55
2018-11-01T02:15:11.334Z,10.52
2018-11-01T02:16:11.318Z,10.53
2018-11-01T02:17:10.768Z,10.55
2018-11-01T02:18:10.758Z,10.51
2018-11-01T02:19:11.274Z,10.44
2018-11-01T02:20:10.988Z,10.46
2018-11-01T02:21:10.969Z,10.37
2018-11-01T02:22:11.227Z,10.51
2018-11-01T02:23:10.933Z,10.39
2018-11-01T02:24:11.199Z,10.53
2018-11-01T02:25:10.905Z,10.37
2018-11-01T02:26:11.159Z,10.34
2018-11-01T02:27:10.871Z,10.36
2018-11-01T02:28:10.862Z,10.37
2018-11-01T02:29:10.572Z,10.37
2018-11-01T02:30:11.099Z,10.43
2018-11-01T02:31:10.803Z,10.36
2018-11-01T02:32:11.052Z,10.33
2018-11-01T02:33:11.042Z,10.3
2018-11-01T02:34:11.023Z,10.39
2018-11-01T02:35:11.004Z,10.36
2018-11-01T02:36:10.722Z,10.3
2018-11-01T02:37:10.967Z,10.37
2018-11-01T02:38:11.006Z,10.3
2018-11-01T02:39:10.411Z,10.32
2018-11-01T02:40:10.926Z,10.26
2018-11-01T02:41:10.660Z,10.24
2018-11-01T02:42:10.629Z,10.26
2018-11-01T02:43:10.865Z,10.22
2018-11-01T02:44:10.356Z,10.22
2018-11-01T02:45:10.836Z,10.21
2018-11-01T02:46:10.815Z,10.25
2018-11-01T02:47:10.542Z,10.19
2018-11-01T02:48:10.518Z,9.97
2018-11-01T02:49:10.503Z,10.04
2018-11-01T02:50:10.508Z,10.03
2018-11-01T02:51:10.199Z,10.03
2018-11-01T02:52:10.715Z,10.04
2018-11-01T02:53:10.176Z,10.01
2018-11-01T02:54:10.684Z,9.97
2018-11-01T02:55:10.130Z,9.97
2018-11-01T02:56:10.132Z,9.96
2018-11-01T02:57:10.644Z,9.99
2018-11-01T02:58:10.348Z,10.03
2018-11-01T02:59:10.327Z,9.85
2018-11-01T03:00:10.587Z,9.89
2018-11-01T03:01:10.602Z,9.89
2018-11-01T03:02:10.548Z,9.75
2018-11-01T03:03:10.262Z,9.81
2018-11-01T03:04:10.247Z,9.81
2018-11-01T03:05:10.237Z,9.71
2018-11-01T03:06:10.481Z,9.73
2018-11-01T03:07:10.196Z,9.78
2018-11-01T03:08:10.182Z,9.67
2018-11-01T03:09:10.425Z,9.61
2018-11-01T03:10:10.421Z,9.6
2018-11-01T03:11:10.128Z,9.61
2018-11-01T03:12:10.382Z,9.53
2018-11-01T03:13:10.096Z,9.45
2018-11-01T03:14:09.812Z,9.43
2018-11-01T03:15:10.325Z,9.43
2018-11-01T03:16:10.040Z,9.39
2018-11-01T03:17:10.203Z,9.27
2018-11-01T03:18:10.016Z,9.28
2018-11-01T03:19:09.997Z,9.25
2018-11-01T03:20:10.243Z,9.28
2018-11-01T03:21:09.973Z,9.15
2018-11-01T03:22:10.205Z,9.25
2018-11-01T03:23:09.918Z,9.21
2018-11-01T03:24:09.908Z,9.25
2018-11-01T03:25:10.159Z,9.25
2018-11-01T03:26:09.879Z,9.15
2018-11-01T03:27:10.117Z,9.16
2018-11-01T03:28:10.101Z,9.12
2018-11-01T03:29:09.820Z,9.12
2018-11-01T03:30:10.076Z,8.97
2018-11-01T03:31:10.062Z,9.04
2018-11-01T03:32:09.765Z,9.1
2018-11-01T03:33:10.013Z,8.93
2018-11-01T03:34:09.737Z,9.01
2018-11-01T03:35:09.731Z,8.97
2018-11-01T03:36:09.697Z,8.94
2018-11-01T03:37:09.957Z,8.96
2018-11-01T03:38:10.123Z,8.91
2018-11-01T03:39:09.924Z,8.91
2018-11-01T03:40:09.626Z,8.91
2018-11-01T03:41:09.607Z,8.79
2018-11-01T03:42:09.846Z,8.83
2018-11-01T03:43:09.578Z,8.86
2018-11-01T03:44:09.817Z,8.9
2018-11-01T03:45:09.275Z,8.79
2018-11-01T03:46:09.789Z,8.86
2018-11-01T03:47:09.238Z,8.78
2018-11-01T03:48:09.218Z,8.75
2018-11-01T03:49:09.488Z,8.72
2018-11-01T03:50:09.716Z,8.73
2018-11-01T03:51:09.703Z,8.75
2018-11-01T03:52:09.530Z,8.71
2018-11-01T03:53:09.674Z,8.65
2018-11-01T03:54:09.379Z,8.63
2018-11-01T03:55:09.630Z,8.57
2018-11-01T03:56:09.611Z,8.51
2018-11-01T03:57:09.327Z,8.51
2018-11-01T03:58:09.579Z,8.48
2018-11-01T03:59:09.297Z,8.47
2018-11-01T04:00:09.544Z,8.4
2018-11-01T04:01:09.523Z,8.37
2018-11-01T04:02:09.232Z,8.32
2018-11-01T04:03:08.954Z,8.33
2018-11-01T04:04:09.477Z,8.28
2018-11-01T04:05:09.182Z,8.32
2018-11-01T04:06:08.908Z,8.26
2018-11-01T04:07:09.419Z,8.26
2018-11-01T04:08:09.151Z,8.26
2018-11-01T04:09:08.853Z,8.25
2018-11-01T04:10:09.356Z,8.12
2018-11-01T04:11:09.339Z,8.15
2018-11-01T04:12:09.051Z,8.18
2018-11-01T04:13:09.261Z,8.1
2018-11-01T04:14:09.298Z,8.14
2018-11-01T04:15:09.641Z,8.04
2018-11-01T04:16:09.247Z,8.07
2018-11-01T04:17:09.721Z,8.04
2018-11-01T04:18:08.941Z,8.02
2018-11-01T04:19:08.927Z,7.99
2018-11-01T04:20:08.906Z,8.03
2018-11-01T04:21:08.888Z,8
2018-11-01T04:22:09.148Z,7.93
2018-11-01T04:23:08.640Z,7.92
2018-11-01T04:24:08.848Z,7.87
2018-11-01T04:25:08.822Z,7.93
2018-11-01T04:26:09.123Z,7.77
2018-11-01T04:27:08.779Z,7.81
2018-11-01T04:28:08.496Z,7.81
2018-11-01T04:29:08.827Z,7.89
2018-11-01T04:30:09.005Z,7.87
2018-11-01T04:31:08.987Z,7.79
2018-11-01T04:32:08.693Z,7.87
2018-11-01T04:33:08.448Z,7.81
2018-11-01T04:34:08.388Z,7.84
2018-11-01T04:35:08.905Z,7.78
2018-11-01T04:36:09.028Z,7.79
2018-11-01T04:37:08.866Z,7.77
2018-11-01T04:38:08.850Z,7.79
2018-11-01T04:39:08.561Z,7.79
2018-11-01T04:40:08.542Z,7.84
2018-11-01T04:41:08.795Z,7.78
2018-11-01T04:42:08.241Z,7.84
2018-11-01T04:43:08.845Z,7.82
2018-11-01T04:44:08.674Z,7.75
2018-11-01T04:45:08.532Z,7.79
2018-11-01T04:46:08.255Z,7.75
2018-11-01T04:47:08.516Z,7.74
2018-11-01T04:48:08.911Z,7.77
2018-11-01T04:49:08.378Z,7.74
2018-11-01T04:50:08.356Z,7.74
2018-11-01T04:51:08.347Z,7.71
2018-11-01T04:52:08.323Z,7.74
2018-11-01T04:53:08.313Z,7.78
2018-11-01T04:54:08.024Z,7.78
2018-11-01T04:55:08.585Z,7.77
2018-11-01T04:56:08.520Z,7.79
2018-11-01T04:57:08.245Z,7.78
2018-11-01T04:58:08.509Z,7.77
2018-11-01T04:59:08.199Z,7.69
2018-11-01T05:00:08.183Z,7.77
2018-11-01T05:01:08.433Z,7.72
2018-11-01T05:02:08.424Z,7.67
2018-11-01T05:03:08.158Z,7.71
2018-11-01T05:04:08.379Z,7.69
2018-11-01T05:05:08.722Z,7.69
2018-11-01T05:06:08.075Z,7.69
2018-11-01T05:07:08.055Z,7.69
2018-11-01T05:08:08.368Z,7.72
2018-11-01T05:09:07.749Z,7.67
2018-11-01T05:10:07.738Z,7.71
2018-11-01T05:11:07.974Z,7.66
2018-11-01T05:12:07.997Z,7.72
2018-11-01T05:13:08.213Z,7.74
2018-11-01T05:14:07.656Z,7.74
2018-11-01T05:15:08.001Z,7.6
2018-11-01T05:16:08.154Z,7.59
2018-11-01T05:17:07.867Z,7.62
2018-11-01T05:18:07.848Z,7.53
2018-11-01T05:19:07.831Z,7.58
2018-11-01T05:20:07.906Z,7.59
2018-11-01T05:21:07.534Z,7.55
2018-11-01T05:22:08.045Z,7.52
2018-11-01T05:23:08.015Z,7.5
2018-11-01T05:24:08.010Z,7.5
2018-11-01T05:25:07.980Z,7.44
2018-11-01T05:26:08.209Z,7.44
2018-11-01T05:27:07.691Z,7.47
2018-11-01T05:28:07.399Z,7.44
2018-11-01T05:29:07.652Z,7.42
2018-11-01T05:30:07.679Z,7.37
2018-11-01T05:31:07.874Z,7.4
2018-11-01T05:32:07.589Z,7.42
2018-11-01T05:33:07.843Z,7.45
2018-11-01T05:34:07.558Z,7.4
2018-11-01T05:35:07.536Z,7.49
2018-11-01T05:36:07.780Z,7.49
2018-11-01T05:37:07.501Z,7.47
2018-11-01T05:38:07.583Z,7.53
2018-11-01T05:39:07.723Z,7.52
2018-11-01T05:40:07.450Z,7.52
2018-11-01T05:41:07.159Z,7.63
2018-11-01T05:42:07.210Z,7.55
2018-11-01T05:43:07.648Z,7.56
2018-11-01T05:44:07.375Z,7.6
2018-11-01T05:45:07.350Z,7.62
2018-11-01T05:46:07.332Z,7.6
2018-11-01T05:47:07.329Z,7.55
2018-11-01T05:48:07.591Z,7.5
2018-11-01T05:49:07.273Z,7.66
2018-11-01T05:50:07.266Z,7.5
2018-11-01T05:51:07.312Z,7.62
2018-11-01T05:52:07.375Z,7.53
2018-11-01T05:53:07.215Z,7.53
2018-11-01T05:54:07.293Z,7.55
2018-11-01T05:55:07.844Z,7.55
2018-11-01T05:56:07.554Z,7.6
2018-11-01T05:57:07.189Z,7.62
2018-11-01T05:58:06.840Z,7.63
2018-11-01T05:59:07.403Z,7.62
2018-11-01T06:00:06.952Z,7.63
2018-11-01T06:01:07.049Z,7.62
2018-11-01T06:02:07.297Z,7.6
2018-11-01T06:03:07.020Z,7.67
2018-11-01T06:04:06.995Z,7.63
2018-11-01T06:05:07.270Z,7.66
2018-11-01T06:06:06.964Z,7.66
2018-11-01T06:07:07.216Z,7.71
2018-11-01T06:08:07.182Z,7.66
2018-11-01T06:09:07.175Z,7.75
2018-11-01T06:10:07.153Z,7.67
2018-11-01T06:11:06.618Z,7.71
2018-11-01T06:12:06.972Z,7.71
2018-11-01T06:13:07.304Z,7.69
2018-11-01T06:14:06.866Z,7.71
2018-11-01T06:15:07.159Z,7.77
2018-11-01T06:16:07.086Z,7.67
2018-11-01T06:17:06.854Z,7.67
2018-11-01T06:18:06.469Z,7.66
2018-11-01T06:19:06.447Z,7.62
2018-11-01T06:20:06.694Z,7.63
2018-11-01T06:21:06.714Z,7.63
2018-11-01T06:22:06.956Z,7.52
2018-11-01T06:23:06.638Z,7.53
2018-11-01T06:24:06.615Z,7.52
2018-11-01T06:25:06.864Z,7.45
2018-11-01T06:26:06.580Z,7.45
2018-11-01T06:27:06.566Z,7.38
2018-11-01T06:28:06.280Z,7.38
2018-11-01T06:29:06.793Z,7.4
2018-11-01T06:30:06.767Z,7.37
2018-11-01T06:31:06.490Z,7.32
2018-11-01T06:32:06.466Z,7.32
2018-11-01T06:33:06.716Z,7.22
2018-11-01T06:34:06.225Z,7.24
2018-11-01T06:35:06.676Z,7.17
2018-11-01T06:36:06.656Z,7.13
2018-11-01T06:37:06.700Z,7.17
2018-11-01T06:38:06.732Z,7.16
2018-11-01T06:39:06.365Z,7.08
2018-11-01T06:40:06.410Z,7.08
2018-11-01T06:41:06.296Z,7.08
2018-11-01T06:42:06.280Z,7.05
2018-11-01T06:43:06.257Z,7.04
2018-11-01T06:44:06.528Z,6.99
2018-11-01T06:45:06.251Z,6.98
2018-11-01T06:46:06.483Z,7.02
2018-11-01T06:47:06.502Z,6.95
2018-11-01T06:48:06.433Z,6.97
2018-11-01T06:49:05.876Z,6.81
2018-11-01T06:50:06.452Z,6.99
2018-11-01T06:51:06.374Z,6.91
2018-11-01T06:52:06.106Z,6.87
2018-11-01T06:53:06.339Z,6.9
2018-11-01T06:54:06.537Z,6.98
2018-11-01T06:55:06.042Z,6.91
2018-11-01T06:56:06.012Z,6.95
2018-11-01T06:57:06.267Z,6.84
2018-11-01T06:58:06.001Z,6.97
2018-11-01T06:59:06.312Z,6.87
2018-11-01T07:00:06.200Z,6.91
2018-11-01T07:01:06.191Z,6.99
2018-11-01T07:02:05.907Z,6.87
2018-11-01T07:03:05.891Z,7.02
2018-11-01T07:04:05.861Z,6.95
2018-11-01T07:05:05.850Z,6.83
2018-11-01T07:06:05.847Z,6.94
2018-11-01T07:07:06.081Z,6.91
2018-11-01T07:08:05.536Z,6.91
2018-11-01T07:09:06.031Z,6.99
2018-11-01T07:10:06.018Z,6.97
2018-11-01T07:11:05.729Z,6.94
2018-11-01T07:12:05.716Z,7.02
2018-11-01T07:13:05.986Z,7.01
2018-11-01T07:14:05.700Z,7.02
2018-11-01T07:15:06.119Z,7.07
2018-11-01T07:16:05.851Z,7.07
2018-11-01T07:17:06.066Z,7.08
2018-11-01T07:18:05.866Z,7.07
2018-11-01T07:19:05.849Z,7.07
2018-11-01T07:20:05.297Z,7.12
2018-11-01T07:21:05.541Z,7.15
2018-11-01T07:22:05.790Z,7.12
2018-11-01T07:23:05.799Z,7.19
2018-11-01T07:24:05.831Z,7.26
2018-11-01T07:25:05.508Z,7.22
2018-11-01T07:26:05.313Z,7.23
2018-11-01T07:27:05.700Z,7.24
2018-11-01T07:28:05.675Z,7.23
2018-11-01T07:29:05.666Z,7.34
2018-11-01T07:30:05.371Z,7.31
2018-11-01T07:31:05.359Z,7.32
2018-11-01T07:32:05.338Z,7.35
2018-11-01T07:33:05.776Z,7.44
2018-11-01T07:34:05.301Z,7.44
2018-11-01T07:35:05.549Z,7.52
2018-11-01T07:36:05.536Z,7.55
2018-11-01T07:37:05.246Z,7.49
2018-11-01T07:38:05.226Z,7.53
2018-11-01T07:39:05.472Z,7.56
2018-11-01T07:40:05.976Z,7.63
2018-11-01T07:41:05.171Z,7.6
2018-11-01T07:42:05.152Z,7.69
2018-11-01T07:43:05.402Z,7.69
2018-11-01T07:44:04.846Z,7.69
2018-11-01T07:45:04.827Z,7.81
2018-11-01T07:46:05.078Z,7.79
2018-11-01T07:47:05.053Z,7.75
2018-11-01T07:48:05.090Z,7.78
2018-11-01T07:49:05.290Z,7.81
2018-11-01T07:50:04.736Z,7.85
2018-11-01T07:51:05.254Z,7.85
2018-11-01T07:52:04.959Z,7.85
2018-11-01T07:53:05.068Z,7.89
2018-11-01T07:54:05.198Z,7.92
2018-11-01T07:55:04.905Z,7.96
2018-11-01T07:56:04.897Z,8
2018-11-01T07:57:04.611Z,7.99
2018-11-01T07:58:04.850Z,8.02
2018-11-01T07:59:04.837Z,8.08
2018-11-01T08:00:04.555Z,8.14
2018-11-01T08:01:05.063Z,8.08
2018-11-01T08:02:04.783Z,8.21
2018-11-01T08:03:04.765Z,8.17
2018-11-01T08:04:04.746Z,8.21
2018-11-01T08:05:04.725Z,8.25
2018-11-01T08:06:05.179Z,8.2
2018-11-01T08:07:04.959Z,8.35
2018-11-01T08:08:04.668Z,8.32
2018-11-01T08:09:04.920Z,8.18
2018-11-01T08:10:04.376Z,8.33
2018-11-01T08:11:04.354Z,8.32
2018-11-01T08:12:04.877Z,8.32
2018-11-01T08:13:04.797Z,8.33
2018-11-01T08:14:04.310Z,8.36
2018-11-01T08:15:04.820Z,8.44
2018-11-01T08:16:04.813Z,8.42
2018-11-01T08:17:04.510Z,8.47
2018-11-01T08:18:04.226Z,8.5
2018-11-01T08:19:04.741Z,8.48
2018-11-01T08:20:05.558Z,8.54
2018-11-01T08:21:05.539Z,8.55
2018-11-01T08:22:04.424Z,8.58
2018-11-01T08:23:04.414Z,8.6
2018-11-01T08:24:04.664Z,8.57
2018-11-01T08:25:04.375Z,8.55
2018-11-01T08:26:04.365Z,8.69
2018-11-01T08:27:04.340Z,8.66
2018-11-01T08:28:04.112Z,8.75
2018-11-01T08:29:04.567Z,8.72
2018-11-01T08:30:04.547Z,8.76
2018-11-01T08:31:04.533Z,8.84
2018-11-01T08:32:04.509Z,8.87
2018-11-01T08:33:04.248Z,8.83
2018-11-01T08:34:04.214Z,8.86
2018-11-01T08:35:04.193Z,8.9
2018-11-01T08:36:04.179Z,8.97
2018-11-01T08:37:03.898Z,8.94
2018-11-01T08:38:04.409Z,9.06
2018-11-01T08:39:04.123Z,9.09
2018-11-01T08:40:04.124Z,9.09
2018-11-01T08:41:04.542Z,9.16
2018-11-01T08:42:04.076Z,9.13
2018-11-01T08:43:04.054Z,9.23
2018-11-01T08:44:04.315Z,9.27
2018-11-01T08:45:03.760Z,9.27
2018-11-01T08:46:03.748Z,9.35
2018-11-01T08:47:03.722Z,9.4
2018-11-01T08:48:03.980Z,9.38
2018-11-01T08:49:03.952Z,9.4
2018-11-01T08:50:04.446Z,9.48
2018-11-01T08:51:03.916Z,9.57
2018-11-01T08:52:03.898Z,9.61
2018-11-01T08:53:03.627Z,9.6
2018-11-01T08:54:03.871Z,9.63
2018-11-01T08:55:04.123Z,9.67
2018-11-01T08:56:03.906Z,9.67
2018-11-01T08:57:03.555Z,9.68
2018-11-01T08:58:03.794Z,9.76
2018-11-01T08:59:03.783Z,9.81
2018-11-01T09:00:04.043Z,9.88
2018-11-01T09:01:03.749Z,9.89
2018-11-01T09:02:04.005Z,9.86
2018-11-01T09:03:03.450Z,9.88
2018-11-01T09:04:04.121Z,9.94
2018-11-01T09:05:03.943Z,9.96
2018-11-01T09:06:03.400Z,9.97
2018-11-01T09:07:03.661Z,10.06
2018-11-01T09:08:03.844Z,10.03
2018-11-01T09:09:03.896Z,10
2018-11-01T09:10:03.336Z,10.1
2018-11-01T09:11:03.878Z,10.21
2018-11-01T09:12:03.832Z,10.25
2018-11-01T09:13:03.925Z,10.18
2018-11-01T09:14:03.549Z,10.17
2018-11-01T09:15:03.521Z,10.25
2018-11-01T09:16:03.504Z,10.22
2018-11-01T09:17:03.768Z,10.28
2018-11-01T09:18:03.467Z,10.37
2018-11-01T09:19:03.479Z,10.25
2018-11-01T09:20:03.707Z,10.34
2018-11-01T09:21:03.684Z,10.37
2018-11-01T09:22:03.676Z,10.32
2018-11-01T09:23:03.386Z,10.32
2018-11-01T09:24:03.374Z,10.39
2018-11-01T09:25:03.096Z,10.4
2018-11-01T09:26:03.338Z,10.37
2018-11-01T09:27:03.676Z,10.36
2018-11-01T09:28:03.043Z,10.36
2018-11-01T09:29:03.031Z,10.42
2018-11-01T09:30:03.275Z,10.52
2018-11-01T09:31:03.528Z,10.44
2018-11-01T09:32:03.507Z,10.52
2018-11-01T09:33:03.713Z,10.51
2018-11-01T09:34:03.493Z,10.56
2018-11-01T09:35:03.462Z,10.58
2018-11-01T09:36:03.452Z,10.63
2018-11-01T09:37:03.165Z,10.6
2018-11-01T09:38:02.885Z,10.73
2018-11-01T09:39:03.401Z,10.66
2018-11-01T09:40:03.113Z,10.74
2018-11-01T09:41:03.121Z,10.78
2018-11-01T09:42:03.080Z,10.71
2018-11-01T09:43:02.812Z,10.81
2018-11-01T09:44:03.055Z,10.8
2018-11-01T09:45:02.774Z,10.77
2018-11-01T09:46:03.831Z,10.88
2018-11-01T09:47:04.219Z,10.81
2018-11-01T09:48:02.725Z,10.83
2018-11-01T09:49:03.233Z,10.84
2018-11-01T09:50:02.964Z,10.89
2018-11-01T09:51:02.941Z,10.98
2018-11-01T09:52:02.922Z,10.98
2018-11-01T09:53:03.183Z,10.94
2018-11-01T09:54:03.161Z,10.95
2018-11-01T09:55:03.145Z,10.98
2018-11-01T09:56:03.401Z,10.95
2018-11-01T09:57:02.852Z,10.96
2018-11-01T09:58:03.100Z,11.09
2018-11-01T09:59:02.817Z,11.06
2018-11-01T10:00:03.067Z,11.06
2018-11-01T10:01:02.878Z,11.03
2018-11-01T10:02:03.036Z,11.14
2018-11-01T10:03:02.486Z,11.1
2018-11-01T10:04:02.996Z,11.09
2018-11-01T10:05:02.729Z,11.11
2018-11-01T10:06:03.306Z,11.13
2018-11-01T10:07:02.863Z,11.14
2018-11-01T10:08:02.681Z,11.16
2018-11-01T10:09:02.652Z,11.16
2018-11-01T10:10:02.911Z,11.17
2018-11-01T10:11:02.632Z,11.19
2018-11-01T10:12:02.350Z,11.27
2018-11-01T10:13:03.554Z,11.24
2018-11-01T10:14:02.591Z,11.19
2018-11-01T10:15:02.861Z,11.29
2018-11-01T10:16:03.824Z,11.29
2018-11-01T10:17:03.978Z,11.27
2018-11-01T10:18:03.829Z,11.34
2018-11-01T10:19:02.770Z,11.28
2018-11-01T10:20:02.498Z,11.27
2018-11-01T10:21:02.210Z,11.28
2018-11-01T10:22:02.800Z,11.27
2018-11-01T10:23:02.936Z,11.29
2018-11-01T10:24:02.438Z,11.32
2018-11-01T10:25:02.691Z,11.25
2018-11-01T10:26:02.655Z,11.21
2018-11-01T10:27:02.647Z,11.36
2018-11-01T10:28:02.365Z,11.35
2018-11-01T10:29:02.547Z,11.41
2018-11-01T10:30:02.593Z,11.39
2018-11-01T10:31:02.319Z,11.44
2018-11-01T10:32:02.301Z,11.53
2018-11-01T10:33:02.284Z,11.46
2018-11-01T10:34:03.069Z,11.52
2018-11-01T10:35:02.476Z,11.49
2018-11-01T10:36:02.241Z,11.5
2018-11-01T10:37:02.222Z,11.57
2018-11-01T10:38:01.947Z,11.59
2018-11-01T10:39:02.458Z,11.59
2018-11-01T10:40:02.456Z,11.57
2018-11-01T10:41:02.883Z,11.67
2018-11-01T10:42:02.153Z,11.62
2018-11-01T10:43:02.137Z,11.71
2018-11-01T10:44:02.386Z,11.67
2018-11-01T10:45:02.106Z,11.7
2018-11-01T10:46:02.088Z,11.62
2018-11-01T10:47:02.350Z,11.82
2018-11-01T10:48:02.328Z,11.77
2018-11-01T10:49:02.312Z,11.8
2018-11-01T10:50:02.297Z,11.8
2018-11-01T10:51:01.755Z,11.82
2018-11-01T10:52:01.996Z,11.97
2018-11-01T10:53:01.723Z,11.93
2018-11-01T10:54:02.484Z,11.89
2018-11-01T10:55:01.957Z,12.01
2018-11-01T10:56:01.935Z,11.85
2018-11-01T10:57:02.185Z,11.96
2018-11-01T10:58:02.171Z,11.89
2018-11-01T10:59:01.895Z,11.99
2018-11-01T11:00:01.698Z,11.96
2018-11-01T11:01:02.192Z,11.96
2018-11-01T11:02:01.586Z,11.97
2018-11-01T11:03:01.586Z,12.12
2018-11-01T11:04:01.824Z,12.12
2018-11-01T11:05:01.800Z,12.05
2018-11-01T11:06:02.051Z,12.12
2018-11-01T11:07:01.799Z,12.09
2018-11-01T11:08:02.034Z,12.09
2018-11-01T11:09:02.012Z,12.15
2018-11-01T11:10:01.736Z,12.09
2018-11-01T11:11:01.981Z,12.02
2018-11-01T11:12:01.701Z,12.12
2018-11-01T11:13:01.949Z,12.09
2018-11-01T11:14:01.943Z,12.06
2018-11-01T11:15:01.655Z,12.09
2018-11-01T11:16:01.906Z,12.21
2018-11-01T11:17:01.629Z,12.19
2018-11-01T11:18:01.351Z,12.21
2018-11-01T11:19:01.601Z,12.19
2018-11-01T11:20:02.199Z,12.27
2018-11-01T11:21:03.395Z,12.19
2018-11-01T11:22:01.560Z,12.29
2018-11-01T11:23:01.803Z,12.19
2018-11-01T11:24:01.802Z,12.21
2018-11-01T11:25:01.518Z,12.33
2018-11-01T11:26:01.246Z,12.34
2018-11-01T11:27:01.741Z,12.31
2018-11-01T11:28:01.728Z,12.39
2018-11-01T11:29:01.188Z,12.34
2018-11-01T11:30:01.868Z,12.31
2018-11-01T11:31:01.685Z,12.3
2018-11-01T11:32:01.405Z,12.37
2018-11-01T11:33:01.398Z,12.42
2018-11-01T11:34:01.640Z,12.38
2018-11-01T11:35:01.369Z,12.41
2018-11-01T11:36:01.106Z,12.37
2018-11-01T11:37:01.337Z,12.37
2018-11-01T11:38:01.583Z,12.39
2018-11-01T11:39:01.745Z,12.31
2018-11-01T11:40:01.560Z,12.37
2018-11-01T11:41:01.275Z,12.42
2018-11-01T11:42:01.522Z,12.37
2018-11-01T11:43:01.509Z,12.34
2018-11-01T11:44:01.236Z,12.45
2018-11-01T11:45:01.484Z,12.42
2018-11-01T11:46:01.205Z,12.33
2018-11-01T11:47:01.188Z,12.41
2018-11-01T11:48:01.172Z,12.38
2018-11-01T11:49:01.155Z,12.39
2018-11-01T11:50:01.142Z,12.31
2018-11-01T11:51:01.129Z,12.39
2018-11-01T11:52:01.116Z,12.37
2018-11-01T11:53:01.366Z,12.44
2018-11-01T11:54:01.354Z,12.41
2018-11-01T11:55:01.342Z,12.44
2018-11-01T11:56:01.056Z,12.48
2018-11-01T11:57:01.235Z,12.41
2018-11-01T11:58:01.043Z,12.44
2018-11-01T11:59:01.278Z,12.42
2018-11-01T12:00:01.263Z,12.34
2018-11-01T12:01:00.981Z,12.51
2018-11-01T12:02:00.707Z,12.49
2018-11-01T12:03:00.954Z,12.42
2018-11-01T12:04:00.941Z,12.41
2018-11-01T12:05:00.933Z,12.48
2018-11-01T12:06:01.151Z,12.49
2018-11-01T12:07:00.916Z,12.48
2018-11-01T12:08:00.883Z,12.41
2018-11-01T12:09:00.606Z,12.45
2018-11-01T12:10:01.119Z,12.51
2018-11-01T12:11:00.576Z,12.48
2018-11-01T12:12:00.820Z,12.49
2018-11-01T12:13:01.077Z,12.48
2018-11-01T12:14:01.369Z,12.52
2018-11-01T12:15:01.043Z,12.34
2018-11-01T12:16:00.770Z,12.46
2018-11-01T12:17:00.497Z,12.45
2018-11-01T12:18:00.475Z,12.45
2018-11-01T12:19:00.983Z,12.52
2018-11-01T12:20:00.720Z,12.46
2018-11-01T12:21:00.694Z,12.44
2018-11-01T12:22:00.945Z,12.41
2018-11-01T12:23:00.933Z,12.51
2018-11-01T12:24:00.942Z,12.34
2018-11-01T12:25:00.915Z,12.39
2018-11-01T12:26:00.994Z,12.39
2018-11-01T12:27:00.637Z,12.39
2018-11-01T12:28:00.861Z,12.49
2018-11-01T12:29:00.826Z,12.49
2018-11-01T12:30:00.562Z,12.42
2018-11-01T12:31:00.813Z,12.49
2018-11-01T12:32:00.801Z,12.54
2018-11-01T12:33:00.785Z,12.46
2018-11-01T12:34:00.765Z,12.49
2018-11-01T12:35:00.324Z,12.48
2018-11-01T12:36:00.665Z,12.48
2018-11-01T12:37:00.463Z,12.48
2018-11-01T12:38:00.716Z,12.41
2018-11-01T12:39:00.437Z,12.48
2018-11-01T12:40:00.454Z,12.46
2018-11-01T12:41:00.674Z,12.48
2018-11-01T12:42:00.652Z,12.48
2018-11-01T12:43:00.383Z,12.42
2018-11-01T12:44:00.365Z,12.45
2018-11-01T12:45:00.597Z,12.46
2018-11-01T12:46:00.597Z,12.42
2018-11-01T12:47:00.321Z,12.34
2018-11-01T12:48:00.573Z,12.34
2018-11-01T12:49:00.027Z,12.38
2018-11-01T12:50:00.782Z,12.41
2018-11-01T12:51:00.519Z,12.42
2018-11-01T12:52:00.246Z,12.33
2018-11-01T12:52:59.967Z,12.39
2018-11-01T12:54:00.208Z,12.42
2018-11-01T12:55:00.512Z,12.37
2018-11-01T12:55:59.920Z,12.39
2018-11-01T12:57:00.163Z,12.41
2018-11-01T12:58:00.154Z,12.38
2018-11-01T12:59:00.133Z,12.38
2018-11-01T13:00:00.121Z,12.23
2018-11-01T13:01:00.376Z,12.26
2018-11-01T13:02:00.352Z,12.26
2018-11-01T13:03:00.345Z,12.3
2018-11-01T13:04:00.060Z,12.23
2018-11-01T13:05:00.048Z,12.24
2018-11-01T13:06:00.030Z,12.23